Aviation Digital Data Service (ADDS)

Output produced by METARs form (1205 UTC 22 March 2019)
found at http://www.aviationweather.gov/metar/data/
 
METAR text: KMSY 221153Z 02004KT 10SM FEW250 12/09 A3017 RMK AO2 SLP218 T01220089 10139 20117 51019
Conditions at: KMSY (NEW ORLEANS/INTL, LA, US) observed 1153 UTC 22 March 2019
Temperature: 12.2°C (54°F)
Dewpoint: 8.9°C (48°F) [RH = 80%]
Pressure (altimeter): 30.17 inches Hg (1021.8 mb)
[Sea-level pressure: 1021.8 mb]
Winds: from the NNE (20 degrees) at 5 MPH (4 knots; 2.1 m/s)
Visibility: 10 or more miles (16+ km)
Ceiling: at least 12,000 feet AGL
Clouds: few clouds at 25000 feet AGL
Weather: no significant weather observed at this time

METAR text: KMSY 221053Z 34003KT 10SM CLR 12/09 A3016 RMK AO2 SLP217 T01220094
Conditions at: KMSY (NEW ORLEANS/INTL, LA, US) observed 1053 UTC 22 March 2019
Temperature: 12.2°C (54°F)
Dewpoint: 9.4°C (49°F) [RH = 83%]
Pressure (altimeter): 30.16 inches Hg (1021.4 mb)
[Sea-level pressure: 1021.7 mb]
Winds: from the NNW (340 degrees) at 3 MPH (3 knots; 1.5 m/s)
Visibility: 10 or more miles (16+ km)
Ceiling: at least 12,000 feet AGL
Clouds: sky clear below 12,000 feet AGL
Weather: no significant weather observed at this time

METAR text: KMSY 220953Z 03004KT 10SM CLR 13/10 A3014 RMK AO2 SLP208 T01330100
Conditions at: KMSY (NEW ORLEANS/INTL, LA, US) observed 0953 UTC 22 March 2019
Temperature: 13.3°C (56°F)
Dewpoint: 10.0°C (50°F) [RH = 80%]
Pressure (altimeter): 30.14 inches Hg (1020.7 mb)
[Sea-level pressure: 1020.8 mb]
Winds: from the NNE (30 degrees) at 5 MPH (4 knots; 2.1 m/s)
Visibility: 10 or more miles (16+ km)
Ceiling: at least 12,000 feet AGL
Clouds: sky clear below 12,000 feet AGL
Weather: no significant weather observed at this time

METAR text: KMSY 220853Z 29007KT 10SM CLR 13/09 A3011 RMK AO2 SLP199 T01330094 58006
Conditions at: KMSY (NEW ORLEANS/INTL, LA, US) observed 0853 UTC 22 March 2019
Temperature: 13.3°C (56°F)
Dewpoint: 9.4°C (49°F) [RH = 77%]
Pressure (altimeter): 30.11 inches Hg (1019.7 mb)
[Sea-level pressure: 1019.9 mb]
Winds: from the WNW (290 degrees) at 8 MPH (7 knots; 3.6 m/s)
Visibility: 10 or more miles (16+ km)
Ceiling: at least 12,000 feet AGL
Clouds: sky clear below 12,000 feet AGL
Weather: no significant weather observed at this time

METAR text: KMSY 220753Z 25006KT 10SM CLR 14/09 A3012 RMK AO2 SLP201 T01390094
Conditions at: KMSY (NEW ORLEANS/INTL, LA, US) observed 0753 UTC 22 March 2019
Temperature: 13.9°C (57°F)
Dewpoint: 9.4°C (49°F) [RH = 74%]
Pressure (altimeter): 30.12 inches Hg (1020.1 mb)
[Sea-level pressure: 1020.1 mb]
Winds: from the WSW (250 degrees) at 7 MPH (6 knots; 3.1 m/s)
Visibility: 10 or more miles (16+ km)
Ceiling: at least 12,000 feet AGL
Clouds: sky clear below 12,000 feet AGL
Weather: no significant weather observed at this time

METAR text: KMSY 220653Z 25006KT 10SM CLR 14/09 A3013 RMK AO2 SLP205 T01390089
Conditions at: KMSY (NEW ORLEANS/INTL, LA, US) observed 0653 UTC 22 March 2019
Temperature: 13.9°C (57°F)
Dewpoint: 8.9°C (48°F) [RH = 72%]
Pressure (altimeter): 30.13 inches Hg (1020.4 mb)
[Sea-level pressure: 1020.5 mb]
Winds: from the WSW (250 degrees) at 7 MPH (6 knots; 3.1 m/s)
Visibility: 10 or more miles (16+ km)
Ceiling: at least 12,000 feet AGL
Clouds: sky clear below 12,000 feet AGL
Weather: no significant weather observed at this time

METAR text: KMSY 220553Z 24007KT 10SM CLR 13/09 A3013 RMK AO2 SLP206 T01330094 10200 20133 402220106 50003
Conditions at: KMSY (NEW ORLEANS/INTL, LA, US) observed 0553 UTC 22 March 2019
Temperature: 13.3°C (56°F)
Dewpoint: 9.4°C (49°F) [RH = 77%]
Pressure (altimeter): 30.13 inches Hg (1020.4 mb)
[Sea-level pressure: 1020.6 mb]
Winds: from the WSW (240 degrees) at 8 MPH (7 knots; 3.6 m/s)
Visibility: 10 or more miles (16+ km)
Ceiling: at least 12,000 feet AGL
Clouds: sky clear below 12,000 feet AGL
Weather: no significant weather observed at this time

METAR text: KMSY 220453Z 24007KT 10SM CLR 14/09 A3014 RMK AO2 SLP207 T01390089
Conditions at: KMSY (NEW ORLEANS/INTL, LA, US) observed 0453 UTC 22 March 2019
Temperature: 13.9°C (57°F)
Dewpoint: 8.9°C (48°F) [RH = 72%]
Pressure (altimeter): 30.14 inches Hg (1020.7 mb)
[Sea-level pressure: 1020.7 mb]
Winds: from the WSW (240 degrees) at 8 MPH (7 knots; 3.6 m/s)
Visibility: 10 or more miles (16+ km)
Ceiling: at least 12,000 feet AGL
Clouds: sky clear below 12,000 feet AGL
Weather: no significant weather observed at this time

METAR text: KMSY 220353Z 24007KT 10SM CLR 14/09 A3013 RMK AO2 SLP206 T01440089
Conditions at: KMSY (NEW ORLEANS/INTL, LA, US) observed 0353 UTC 22 March 2019
Temperature: 14.4°C (58°F)
Dewpoint: 8.9°C (48°F) [RH = 70%]
Pressure (altimeter): 30.13 inches Hg (1020.4 mb)
[Sea-level pressure: 1020.6 mb]
Winds: from the WSW (240 degrees) at 8 MPH (7 knots; 3.6 m/s)
Visibility: 10 or more miles (16+ km)
Ceiling: at least 12,000 feet AGL
Clouds: sky clear below 12,000 feet AGL
Weather: no significant weather observed at this time

METAR text: KMSY 220253Z 23007KT 10SM CLR 15/06 A3012 RMK AO2 SLP203 T01500061 53014
Conditions at: KMSY (NEW ORLEANS/INTL, LA, US) observed 0253 UTC 22 March 2019
Temperature: 15.0°C (59°F)
Dewpoint: 6.1°C (43°F) [RH = 55%]
Pressure (altimeter): 30.12 inches Hg (1020.1 mb)
[Sea-level pressure: 1020.3 mb]
Winds: from the SW (230 degrees) at 8 MPH (7 knots; 3.6 m/s)
Visibility: 10 or more miles (16+ km)
Ceiling: at least 12,000 feet AGL
Clouds: sky clear below 12,000 feet AGL
Weather: no significant weather observed at this time

METAR text: KMSY 220153Z 30004KT 10SM CLR 17/06 A3011 RMK AO2 SLP197 T01670056
Conditions at: KMSY (NEW ORLEANS/INTL, LA, US) observed 0153 UTC 22 March 2019
Temperature: 16.7°C (62°F)
Dewpoint: 5.6°C (42°F) [RH = 48%]
Pressure (altimeter): 30.11 inches Hg (1019.7 mb)
[Sea-level pressure: 1019.7 mb]
Winds: from the WNW (300 degrees) at 5 MPH (4 knots; 2.1 m/s)
Visibility: 10 or more miles (16+ km)
Ceiling: at least 12,000 feet AGL
Clouds: sky clear below 12,000 feet AGL
Weather: no significant weather observed at this time

METAR text: KMSY 220053Z 29006KT 10SM FEW250 17/05 A3009 RMK AO2 SLP193 T01720050
Conditions at: KMSY (NEW ORLEANS/INTL, LA, US) observed 0053 UTC 22 March 2019
Temperature: 17.2°C (63°F)
Dewpoint: 5.0°C (41°F) [RH = 44%]
Pressure (altimeter): 30.09 inches Hg (1019.0 mb)
[Sea-level pressure: 1019.3 mb]
Winds: from the WNW (290 degrees) at 7 MPH (6 knots; 3.1 m/s)
Visibility: 10 or more miles (16+ km)
Ceiling: at least 12,000 feet AGL
Clouds: few clouds at 25000 feet AGL
Weather: no significant weather observed at this time

METAR text: KMSY 212353Z 30008KT 10SM CLR 21/03 A3008 RMK AO2 SLP189 T02060033 10222 20183 55000
Conditions at: KMSY (NEW ORLEANS/INTL, LA, US) observed 2353 UTC 21 March 2019
Temperature: 20.6°C (69°F)
Dewpoint: 3.3°C (38°F) [RH = 32%]
Pressure (altimeter): 30.08 inches Hg (1018.7 mb)
[Sea-level pressure: 1018.9 mb]
Winds: from the WNW (300 degrees) at 9 MPH (8 knots; 4.1 m/s)
Visibility: 10 or more miles (16+ km)
Ceiling: at least 12,000 feet AGL
Clouds: sky clear below 12,000 feet AGL
Weather: no significant weather observed at this time

METAR text: KMSY 212253Z 31010KT 10SM CLR 22/03 A3007 RMK AO2 SLP185 T02170033
Conditions at: KMSY (NEW ORLEANS/INTL, LA, US) observed 2253 UTC 21 March 2019
Temperature: 21.7°C (71°F)
Dewpoint: 3.3°C (38°F) [RH = 30%]
Pressure (altimeter): 30.07 inches Hg (1018.4 mb)
[Sea-level pressure: 1018.5 mb]
Winds: from the NW (310 degrees) at 12 MPH (10 knots; 5.1 m/s)
Visibility: 10 or more miles (16+ km)
Ceiling: at least 12,000 feet AGL
Clouds: sky clear below 12,000 feet AGL
Weather: no significant weather observed at this time

METAR text: KMSY 212153Z 30009KT 10SM CLR 22/03 A3007 RMK AO2 SLP186 T02220028
Conditions at: KMSY (NEW ORLEANS/INTL, LA, US) observed 2153 UTC 21 March 2019
Temperature: 22.2°C (72°F)
Dewpoint: 2.8°C (37°F) [RH = 28%]
Pressure (altimeter): 30.07 inches Hg (1018.4 mb)
[Sea-level pressure: 1018.6 mb]
Winds: from the WNW (300 degrees) at 10 MPH (9 knots; 4.6 m/s)
Visibility: 10 or more miles (16+ km)
Ceiling: at least 12,000 feet AGL
Clouds: sky clear below 12,000 feet AGL
Weather: no significant weather observed at this time

METAR text: KMSY 212053Z 28007KT 10SM CLR 22/05 A3008 RMK AO2 SLP189 T02170050 56028
Conditions at: KMSY (NEW ORLEANS/INTL, LA, US) observed 2053 UTC 21 March 2019
Temperature: 21.7°C (71°F)
Dewpoint: 5.0°C (41°F) [RH = 34%]
Pressure (altimeter): 30.08 inches Hg (1018.7 mb)
[Sea-level pressure: 1018.9 mb]
Winds: from the W (280 degrees) at 8 MPH (7 knots; 3.6 m/s)
Visibility: 10 or more miles (16+ km)
Ceiling: at least 12,000 feet AGL
Clouds: sky clear below 12,000 feet AGL
Weather: no significant weather observed at this time

METAR text: KMSY 211953Z VRB05KT 10SM CLR 21/05 A3010 RMK AO2 SLP197 T02110050
Conditions at: KMSY (NEW ORLEANS/INTL, LA, US) observed 1953 UTC 21 March 2019
Temperature: 21.1°C (70°F)
Dewpoint: 5.0°C (41°F) [RH = 35%]
Pressure (altimeter): 30.10 inches Hg (1019.4 mb)
[Sea-level pressure: 1019.7 mb]
Winds: variable direction winds at 6 MPH (5 knots; 2.6 m/s)
Visibility: 10 or more miles (16+ km)
Ceiling: at least 12,000 feet AGL
Clouds: sky clear below 12,000 feet AGL
Weather: no significant weather observed at this time

METAR text: KMSY 211853Z VRB04KT 10SM CLR 19/04 A3013 RMK AO2 SLP206 T01940039
Conditions at: KMSY (NEW ORLEANS/INTL, LA, US) observed 1853 UTC 21 March 2019
Temperature: 19.4°C (67°F)
Dewpoint: 3.9°C (39°F) [RH = 36%]
Pressure (altimeter): 30.13 inches Hg (1020.4 mb)
[Sea-level pressure: 1020.6 mb]
Winds: variable direction winds at 5 MPH (4 knots; 2.1 m/s)
Visibility: 10 or more miles (16+ km)
Ceiling: at least 12,000 feet AGL
Clouds: sky clear below 12,000 feet AGL
Weather: no significant weather observed at this time

METAR text: KMSY 211753Z 31009KT 10SM CLR 18/03 A3017 RMK AO2 SLP218 T01830033 10189 20106 58016
Conditions at: KMSY (NEW ORLEANS/INTL, LA, US) observed 1753 UTC 21 March 2019
Temperature: 18.3°C (65°F)
Dewpoint: 3.3°C (38°F) [RH = 37%]
Pressure (altimeter): 30.17 inches Hg (1021.8 mb)
[Sea-level pressure: 1021.8 mb]
Winds: from the NW (310 degrees) at 10 MPH (9 knots; 4.6 m/s)
Visibility: 10 or more miles (16+ km)
Ceiling: at least 12,000 feet AGL
Clouds: sky clear below 12,000 feet AGL
Weather: no significant weather observed at this time

METAR text: KMSY 211653Z 33005KT 10SM CLR 18/03 A3019 RMK AO2 SLP225 T01780028
Conditions at: KMSY (NEW ORLEANS/INTL, LA, US) observed 1653 UTC 21 March 2019
Temperature: 17.8°C (64°F)
Dewpoint: 2.8°C (37°F) [RH = 37%]
Pressure (altimeter): 30.19 inches Hg (1022.4 mb)
[Sea-level pressure: 1022.5 mb]
Winds: from the NNW (330 degrees) at 6 MPH (5 knots; 2.6 m/s)
Visibility: 10 or more miles (16+ km)
Ceiling: at least 12,000 feet AGL
Clouds: sky clear below 12,000 feet AGL
Weather: no significant weather observed at this time

METAR text: KMSY 211553Z VRB05KT 10SM CLR 17/04 A3020 RMK AO2 SLP231 T01670039
Conditions at: KMSY (NEW ORLEANS/INTL, LA, US) observed 1553 UTC 21 March 2019
Temperature: 16.7°C (62°F)
Dewpoint: 3.9°C (39°F) [RH = 42%]
Pressure (altimeter): 30.20 inches Hg (1022.8 mb)
[Sea-level pressure: 1023.1 mb]
Winds: variable direction winds at 6 MPH (5 knots; 2.6 m/s)
Visibility: 10 or more miles (16+ km)
Ceiling: at least 12,000 feet AGL
Clouds: sky clear below 12,000 feet AGL
Weather: no significant weather observed at this time

METAR text: KMSY 211453Z 34006KT 10SM CLR 14/06 A3021 RMK AO2 SLP233 T01440056 51011
Conditions at: KMSY (NEW ORLEANS/INTL, LA, US) observed 1453 UTC 21 March 2019
Temperature: 14.4°C (58°F)
Dewpoint: 5.6°C (42°F) [RH = 55%]
Pressure (altimeter): 30.21 inches Hg (1023.1 mb)
[Sea-level pressure: 1023.3 mb]
Winds: from the NNW (340 degrees) at 7 MPH (6 knots; 3.1 m/s)
Visibility: 10 or more miles (16+ km)
Ceiling: at least 12,000 feet AGL
Clouds: sky clear below 12,000 feet AGL
Weather: no significant weather observed at this time

METAR text: KMSY 211353Z 33005KT 10SM FEW060 13/06 A3021 RMK AO2 SLP231 T01330061
Conditions at: KMSY (NEW ORLEANS/INTL, LA, US) observed 1353 UTC 21 March 2019
Temperature: 13.3°C (56°F)
Dewpoint: 6.1°C (43°F) [RH = 62%]
Pressure (altimeter): 30.21 inches Hg (1023.1 mb)
[Sea-level pressure: 1023.1 mb]
Winds: from the NNW (330 degrees) at 6 MPH (5 knots; 2.6 m/s)
Visibility: 10 or more miles (16+ km)
Ceiling: at least 12,000 feet AGL
Clouds: few clouds at 6000 feet AGL
Weather: no significant weather observed at this time

METAR text: KMSY 211253Z 34003KT 10SM FEW060 12/07 A3019 RMK AO2 SLP227 T01170072
Conditions at: KMSY (NEW ORLEANS/INTL, LA, US) observed 1253 UTC 21 March 2019
Temperature: 11.7°C (53°F)
Dewpoint: 7.2°C (45°F) [RH = 74%]
Pressure (altimeter): 30.19 inches Hg (1022.4 mb)
[Sea-level pressure: 1022.7 mb]
Winds: from the NNW (340 degrees) at 3 MPH (3 knots; 1.5 m/s)
Visibility: 10 or more miles (16+ km)
Ceiling: at least 12,000 feet AGL
Clouds: few clouds at 6000 feet AGL
Weather: no significant weather observed at this time

METAR text: KMSY 211153Z 35003KT 10SM FEW150 11/07 A3018 RMK AO2 SLP222 T01110072 10133 20111 53012
Conditions at: KMSY (NEW ORLEANS/INTL, LA, US) observed 1153 UTC 21 March 2019
Temperature: 11.1°C (52°F)
Dewpoint: 7.2°C (45°F) [RH = 77%]
Pressure (altimeter): 30.18 inches Hg (1022.1 mb)
[Sea-level pressure: 1022.2 mb]
Winds: from the N (350 degrees) at 3 MPH (3 knots; 1.5 m/s)
Visibility: 10 or more miles (16+ km)
Ceiling: at least 12,000 feet AGL
Clouds: few clouds at 15000 feet AGL
Weather: no significant weather observed at this time

METAR text: KMSY 211053Z 34004KT 10SM FEW100 12/07 A3016 RMK AO2 SLP217 T01170072
Conditions at: KMSY (NEW ORLEANS/INTL, LA, US) observed 1053 UTC 21 March 2019
Temperature: 11.7°C (53°F)
Dewpoint: 7.2°C (45°F) [RH = 74%]
Pressure (altimeter): 30.16 inches Hg (1021.4 mb)
[Sea-level pressure: 1021.7 mb]
Winds: from the NNW (340 degrees) at 5 MPH (4 knots; 2.1 m/s)
Visibility: 10 or more miles (16+ km)
Ceiling: at least 12,000 feet AGL
Clouds: few clouds at 10000 feet AGL
Weather: no significant weather observed at this time

METAR text: KMSY 210953Z 35003KT 10SM FEW200 12/07 A3015 RMK AO2 SLP212 T01170072
Conditions at: KMSY (NEW ORLEANS/INTL, LA, US) observed 0953 UTC 21 March 2019
Temperature: 11.7°C (53°F)
Dewpoint: 7.2°C (45°F) [RH = 74%]
Pressure (altimeter): 30.15 inches Hg (1021.1 mb)
[Sea-level pressure: 1021.2 mb]
Winds: from the N (350 degrees) at 3 MPH (3 knots; 1.5 m/s)
Visibility: 10 or more miles (16+ km)
Ceiling: at least 12,000 feet AGL
Clouds: few clouds at 20000 feet AGL
Weather: no significant weather observed at this time

METAR text: KMSY 210853Z 33004KT 10SM CLR 12/07 A3014 RMK AO2 SLP210 T01220072 53003
Conditions at: KMSY (NEW ORLEANS/INTL, LA, US) observed 0853 UTC 21 March 2019
Temperature: 12.2°C (54°F)
Dewpoint: 7.2°C (45°F) [RH = 71%]
Pressure (altimeter): 30.14 inches Hg (1020.7 mb)
[Sea-level pressure: 1021.0 mb]
Winds: from the NNW (330 degrees) at 5 MPH (4 knots; 2.1 m/s)
Visibility: 10 or more miles (16+ km)
Ceiling: at least 12,000 feet AGL
Clouds: sky clear below 12,000 feet AGL
Weather: no significant weather observed at this time

METAR text: KMSY 210753Z 32006KT 10SM CLR 13/08 A3014 RMK AO2 SLP210 T01280083
Conditions at: KMSY (NEW ORLEANS/INTL, LA, US) observed 0753 UTC 21 March 2019
Temperature: 12.8°C (55°F)
Dewpoint: 8.3°C (47°F) [RH = 74%]
Pressure (altimeter): 30.14 inches Hg (1020.7 mb)
[Sea-level pressure: 1021.0 mb]
Winds: from the NW (320 degrees) at 7 MPH (6 knots; 3.1 m/s)
Visibility: 10 or more miles (16+ km)
Ceiling: at least 12,000 feet AGL
Clouds: sky clear below 12,000 feet AGL
Weather: no significant weather observed at this time

METAR text: KMSY 210653Z 25004KT 10SM CLR 12/07 A3013 RMK AO2 SLP206 T01220072
Conditions at: KMSY (NEW ORLEANS/INTL, LA, US) observed 0653 UTC 21 March 2019
Temperature: 12.2°C (54°F)
Dewpoint: 7.2°C (45°F) [RH = 71%]
Pressure (altimeter): 30.13 inches Hg (1020.4 mb)
[Sea-level pressure: 1020.6 mb]
Winds: from the WSW (250 degrees) at 5 MPH (4 knots; 2.1 m/s)
Visibility: 10 or more miles (16+ km)
Ceiling: at least 12,000 feet AGL
Clouds: sky clear below 12,000 feet AGL
Weather: no significant weather observed at this time

METAR text: KMSY 210553Z 26006KT 10SM CLR 12/07 A3013 RMK AO2 SLP207 T01220067 10194 20122 402110067 56009
Conditions at: KMSY (NEW ORLEANS/INTL, LA, US) observed 0553 UTC 21 March 2019
Temperature: 12.2°C (54°F)
Dewpoint: 6.7°C (44°F) [RH = 69%]
Pressure (altimeter): 30.13 inches Hg (1020.4 mb)
[Sea-level pressure: 1020.7 mb]
Winds: from the W (260 degrees) at 7 MPH (6 knots; 3.1 m/s)
Visibility: 10 or more miles (16+ km)
Ceiling: at least 12,000 feet AGL
Clouds: sky clear below 12,000 feet AGL
Weather: no significant weather observed at this time

METAR text: KMSY 210453Z 24006KT 10SM CLR 13/04 A3014 RMK AO2 SLP209 T01280044
Conditions at: KMSY (NEW ORLEANS/INTL, LA, US) observed 0453 UTC 21 March 2019
Temperature: 12.8°C (55°F)
Dewpoint: 4.4°C (40°F) [RH = 57%]
Pressure (altimeter): 30.14 inches Hg (1020.7 mb)
[Sea-level pressure: 1020.9 mb]
Winds: from the WSW (240 degrees) at 7 MPH (6 knots; 3.1 m/s)
Visibility: 10 or more miles (16+ km)
Ceiling: at least 12,000 feet AGL
Clouds: sky clear below 12,000 feet AGL
Weather: no significant weather observed at this time

METAR text: KMSY 210353Z 21005KT 10SM CLR 14/03 A3015 RMK AO2 SLP213 T01390028
Conditions at: KMSY (NEW ORLEANS/INTL, LA, US) observed 0353 UTC 21 March 2019
Temperature: 13.9°C (57°F)
Dewpoint: 2.8°C (37°F) [RH = 47%]
Pressure (altimeter): 30.15 inches Hg (1021.1 mb)
[Sea-level pressure: 1021.3 mb]
Winds: from the SSW (210 degrees) at 6 MPH (5 knots; 2.6 m/s)
Visibility: 10 or more miles (16+ km)
Ceiling: at least 12,000 feet AGL
Clouds: sky clear below 12,000 feet AGL
Weather: no significant weather observed at this time

METAR text: KMSY 210253Z 23003KT 10SM CLR 14/03 A3016 RMK AO2 SLP216 T01390033 53014
Conditions at: KMSY (NEW ORLEANS/INTL, LA, US) observed 0253 UTC 21 March 2019
Temperature: 13.9°C (57°F)
Dewpoint: 3.3°C (38°F) [RH = 49%]
Pressure (altimeter): 30.16 inches Hg (1021.4 mb)
[Sea-level pressure: 1021.6 mb]
Winds: from the SW (230 degrees) at 3 MPH (3 knots; 1.5 m/s)
Visibility: 10 or more miles (16+ km)
Ceiling: at least 12,000 feet AGL
Clouds: sky clear below 12,000 feet AGL
Weather: no significant weather observed at this time

METAR text: KMSY 210153Z 21003KT 10SM CLR 14/04 A3014 RMK AO2 SLP210 T01390039
Conditions at: KMSY (NEW ORLEANS/INTL, LA, US) observed 0153 UTC 21 March 2019
Temperature: 13.9°C (57°F)
Dewpoint: 3.9°C (39°F) [RH = 51%]
Pressure (altimeter): 30.14 inches Hg (1020.7 mb)
[Sea-level pressure: 1021.0 mb]
Winds: from the SSW (210 degrees) at 3 MPH (3 knots; 1.5 m/s)
Visibility: 10 or more miles (16+ km)
Ceiling: at least 12,000 feet AGL
Clouds: sky clear below 12,000 feet AGL
Weather: no significant weather observed at this time

METAR text: KMSY 210053Z 21003KT 10SM FEW250 16/03 A3013 RMK AO2 SLP206 T01560028
Conditions at: KMSY (NEW ORLEANS/INTL, LA, US) observed 0053 UTC 21 March 2019
Temperature: 15.6°C (60°F)
Dewpoint: 2.8°C (37°F) [RH = 42%]
Pressure (altimeter): 30.13 inches Hg (1020.4 mb)
[Sea-level pressure: 1020.6 mb]
Winds: from the SSW (210 degrees) at 3 MPH (3 knots; 1.5 m/s)
Visibility: 10 or more miles (16+ km)
Ceiling: at least 12,000 feet AGL
Clouds: few clouds at 25000 feet AGL
Weather: no significant weather observed at this time

Forecast for: KMSY (NEW ORLEANS/INTL, LA, US)
Text: KMSY 221135Z 2212/2318 34003KT P6SM SKC
Forecast period: 1200 to 1400 UTC 22 March 2019
Forecast type: FROM: standard forecast or significant change
Winds: from the NNW (340 degrees) at 3 MPH (3 knots; 1.5 m/s)
Visibility: 6 or more miles 10+ km)
Clouds: clear skies
Weather: no significant weather forecast for this period
Text: FM221400 06006KT P6SM SKC
Forecast period: 1400 to 1700 UTC 22 March 2019
Forecast type: FROM: standard forecast or significant change
Winds: from the ENE (60 degrees) at 7 MPH (6 knots; 3.1 m/s)
Visibility: 6 or more miles 10+ km)
Clouds: clear skies
Weather: no significant weather forecast for this period
Text: FM221700 VRB05KT P6SM SKC
Forecast period: 1700 UTC 22 March 2019 to 1800 UTC 23 March 2019
Forecast type: FROM: standard forecast or significant change
Winds: variable direction winds at 6 MPH (5 knots; 2.6 m/s)
Visibility: 6 or more miles 10+ km)
Clouds: clear skies
Weather: no significant weather forecast for this period